sensor_id;sensor_type;location;lat;lon;timestamp;pressure;altitude;pressure_sealevel;temperature;humidity
72585;BME280;60618;40.084;32.908;2022-07-29T00:00:27;89444.19;;;22.20;45.77
72585;BME280;60618;40.084;32.908;2022-07-29T00:02:54;89435.69;;;22.16;45.80
72585;BME280;60618;40.084;32.908;2022-07-29T00:05:21;89447.44;;;22.10;45.95
72585;BME280;60618;40.084;32.908;2022-07-29T00:07:48;89446.53;;;22.08;46.17
72585;BME280;60618;40.084;32.908;2022-07-29T00:10:15;89437.47;;;22.05;46.21
72585;BME280;60618;40.084;32.908;2022-07-29T00:12:42;89436.03;;;22.04;46.04
72585;BME280;60618;40.084;32.908;2022-07-29T00:15:09;89445.78;;;22.00;46.04
72585;BME280;60618;40.084;32.908;2022-07-29T00:17:36;89443.28;;;21.94;46.13
72585;BME280;60618;40.084;32.908;2022-07-29T00:20:04;89450.88;;;21.96;46.39
72585;BME280;60618;40.084;32.908;2022-07-29T00:22:31;89444.34;;;21.91;46.29
72585;BME280;60618;40.084;32.908;2022-07-29T00:24:58;89458.47;;;21.90;46.37
72585;BME280;60618;40.084;32.908;2022-07-29T00:27:25;89448.53;;;21.85;46.51
72585;BME280;60618;40.084;32.908;2022-07-29T00:29:52;89450.53;;;21.84;46.61
72585;BME280;60618;40.084;32.908;2022-07-29T00:32:19;89455.94;;;21.84;46.33
72585;BME280;60618;40.084;32.908;2022-07-29T00:34:46;89457.38;;;21.77;46.50
72585;BME280;60618;40.084;32.908;2022-07-29T00:37:12;89455.94;;;21.76;46.64
72585;BME280;60618;40.084;32.908;2022-07-29T00:39:39;89451.59;;;21.73;46.67
72585;BME280;60618;40.084;32.908;2022-07-29T00:42:06;89451.41;;;21.71;46.56
72585;BME280;60618;40.084;32.908;2022-07-29T00:44:38;89461.00;;;21.72;46.41
72585;BME280;60618;40.084;32.908;2022-07-29T00:47:06;89455.94;;;21.69;46.39
72585;BME280;60618;40.084;32.908;2022-07-29T00:49:34;89457.75;;;21.66;46.47
72585;BME280;60618;40.084;32.908;2022-07-29T00:52:02;89450.16;;;21.72;46.74
72585;BME280;60618;40.084;32.908;2022-07-29T00:54:29;89457.00;;;21.73;46.53
72585;BME280;60618;40.084;32.908;2022-07-29T00:56:59;89453.78;;;21.67;46.45
72585;BME280;60618;40.084;32.908;2022-07-29T00:59:27;89449.78;;;21.68;46.51
72585;BME280;60618;40.084;32.908;2022-07-29T01:02:02;89451.06;;;21.67;46.44
72585;BME280;60618;40.084;32.908;2022-07-29T01:04:30;89443.66;;;21.68;46.43
72585;BME280;60618;40.084;32.908;2022-07-29T01:06:58;89452.34;;;21.66;46.41
72585;BME280;60618;40.084;32.908;2022-07-29T01:09:27;89447.81;;;21.61;46.46
72585;BME280;60618;40.084;32.908;2022-07-29T01:12:21;89450.34;;;21.59;46.86
72585;BME280;60618;40.084;32.908;2022-07-29T01:14:49;89457.19;;;21.60;46.51
72585;BME280;60618;40.084;32.908;2022-07-29T01:17:28;89447.44;;;21.57;46.45
72585;BME280;60618;40.084;32.908;2022-07-29T01:20:04;89445.47;;;21.58;46.28
72585;BME280;60618;40.084;32.908;2022-07-29T01:30:25;89451.75;;;21.45;46.48
72585;BME280;60618;40.084;32.908;2022-07-29T01:33:00;89453.03;;;21.44;46.52
72585;BME280;60618;40.084;32.908;2022-07-29T01:35:36;89449.97;;;21.40;46.61
72585;BME280;60618;40.084;32.908;2022-07-29T01:38:16;89448.53;;;21.39;46.76
72585;BME280;60618;40.084;32.908;2022-07-29T01:40:49;89449.25;;;21.39;46.92
72585;BME280;60618;40.084;32.908;2022-07-29T01:43:21;89446.16;;;21.35;46.95
72585;BME280;60618;40.084;32.908;2022-07-29T01:45:53;89444.34;;;21.30;47.04
72585;BME280;60618;40.084;32.908;2022-07-29T01:48:27;89443.44;;;21.28;46.78
72585;BME280;60618;40.084;32.908;2022-07-29T01:51:18;89450.13;;;21.27;46.89
72585;BME280;60618;40.084;32.908;2022-07-29T01:53:53;89438.91;;;21.22;46.90
72585;BME280;60618;40.084;32.908;2022-07-29T01:56:23;89433.09;;;21.18;46.83
72585;BME280;60618;40.084;32.908;2022-07-29T01:58:52;89439.78;;;21.17;47.20
72585;BME280;60618;40.084;32.908;2022-07-29T02:01:21;89434.72;;;21.06;46.81
72585;BME280;60618;40.084;32.908;2022-07-29T02:03:51;89434.88;;;21.08;47.19
72585;BME280;60618;40.084;32.908;2022-07-29T02:06:21;89435.59;;;21.09;47.08
72585;BME280;60618;40.084;32.908;2022-07-29T02:08:50;89442.84;;;21.06;46.95
72585;BME280;60618;40.084;32.908;2022-07-29T02:11:18;89441.03;;;21.09;47.02
72585;BME280;60618;40.084;32.908;2022-07-29T02:13:46;89432.00;;;21.06;46.98
72585;BME280;60618;40.084;32.908;2022-07-29T02:16:17;89435.78;;;21.03;47.00
72585;BME280;60618;40.084;32.908;2022-07-29T02:18:49;89436.66;;;20.98;46.94
72585;BME280;60618;40.084;32.908;2022-07-29T02:21:23;89443.16;;;20.95;46.98
72585;BME280;60618;40.084;32.908;2022-07-29T02:23:52;89440.66;;;20.97;46.92
72585;BME280;60618;40.084;32.908;2022-07-29T02:26:22;89440.25;;;20.93;47.09
72585;BME280;60618;40.084;32.908;2022-07-29T02:28:52;89439.91;;;20.89;47.26
72585;BME280;60618;40.084;32.908;2022-07-29T02:31:24;89432.84;;;20.86;47.21
72585;BME280;60618;40.084;32.908;2022-07-29T02:33:53;89443.16;;;20.87;47.09
72585;BME280;60618;40.084;32.908;2022-07-29T02:36:22;89437.72;;;20.87;46.79
72585;BME280;60618;40.084;32.908;2022-07-29T02:38:50;89444.03;;;20.82;47.08
72585;BME280;60618;40.084;32.908;2022-07-29T02:41:30;89437.53;;;20.78;46.99
72585;BME280;60618;40.084;32.908;2022-07-29T02:44:09;89437.13;;;20.74;47.22
72585;BME280;60618;40.084;32.908;2022-07-29T02:46:37;89441.28;;;20.75;47.16
72585;BME280;60618;40.084;32.908;2022-07-29T02:51:56;89446.53;;;20.73;47.44
72585;BME280;60618;40.084;32.908;2022-07-29T02:57:00;89445.94;;;20.66;47.60
72585;BME280;60618;40.084;32.908;2022-07-29T02:59:30;89432.63;;;20.68;47.18
72585;BME280;60618;40.084;32.908;2022-07-29T03:02:00;89438.03;;;20.68;47.25
72585;BME280;60618;40.084;32.908;2022-07-29T03:04:30;89448.16;;;20.76;47.35
72585;BME280;60618;40.084;32.908;2022-07-29T03:07:00;89446.00;;;20.82;47.02
72585;BME280;60618;40.084;32.908;2022-07-29T03:09:29;89437.88;;;20.82;47.08
72585;BME280;60618;40.084;32.908;2022-07-29T03:11:56;89437.00;;;20.87;47.18
72585;BME280;60618;40.084;32.908;2022-07-29T03:14:24;89438.44;;;20.88;46.88
72585;BME280;60618;40.084;32.908;2022-07-29T03:16:52;89450.03;;;20.96;46.84
72585;BME280;60618;40.084;32.908;2022-07-29T03:19:19;89445.38;;;21.04;46.51
72585;BME280;60618;40.084;32.908;2022-07-29T03:21:47;89442.84;;;21.06;46.41
72585;BME280;60618;40.084;32.908;2022-07-29T03:24:32;89446.09;;;21.12;46.57
72585;BME280;60618;40.084;32.908;2022-07-29T03:27:01;89446.81;;;21.20;46.37
72585;BME280;60618;40.084;32.908;2022-07-29T03:29:29;89446.81;;;21.20;46.08
72585;BME280;60618;40.084;32.908;2022-07-29T03:32:00;89451.72;;;21.30;46.00
72585;BME280;60618;40.084;32.908;2022-07-29T03:34:29;89458.63;;;21.38;46.07
72585;BME280;60618;40.084;32.908;2022-07-29T03:36:56;89463.50;;;21.47;45.92
72585;BME280;60618;40.084;32.908;2022-07-29T03:39:26;89459.34;;;21.54;45.82
72585;BME280;60618;40.084;32.908;2022-07-29T03:41:56;89461.53;;;21.63;45.74
72585;BME280;60618;40.084;32.908;2022-07-29T03:44:26;89455.75;;;21.74;45.66
72585;BME280;60618;40.084;32.908;2022-07-29T03:46:55;89464.44;;;21.88;45.32
72585;BME280;60618;40.084;32.908;2022-07-29T03:49:24;89472.91;;;22.00;45.08
72585;BME280;60618;40.084;32.908;2022-07-29T03:51:53;89463.91;;;22.13;44.79
72585;BME280;60618;40.084;32.908;2022-07-29T03:54:20;89461.69;;;22.26;44.42
72585;BME280;60618;40.084;32.908;2022-07-29T03:56:48;89458.78;;;22.40;44.15
72585;BME280;60618;40.084;32.908;2022-07-29T03:59:16;89460.56;;;22.52;43.70
72585;BME280;60618;40.084;32.908;2022-07-29T04:01:44;89459.09;;;22.59;43.65
72585;BME280;60618;40.084;32.908;2022-07-29T04:04:12;89462.50;;;22.67;43.86
72585;BME280;60618;40.084;32.908;2022-07-29T04:06:45;89460.50;;;22.75;43.37
72585;BME280;60618;40.084;32.908;2022-07-29T04:09:14;89453.25;;;22.85;43.62
72585;BME280;60618;40.084;32.908;2022-07-29T04:11:41;89464.56;;;22.99;43.24
72585;BME280;60618;40.084;32.908;2022-07-29T04:14:29;89461.47;;;23.10;43.01
72585;BME280;60618;40.084;32.908;2022-07-29T04:16:56;89464.31;;;23.20;43.06
72585;BME280;60618;40.084;32.908;2022-07-29T04:19:23;89463.47;;;23.35;42.96
72585;BME280;60618;40.084;32.908;2022-07-29T04:21:50;89462.69;;;23.49;42.23
72585;BME280;60618;40.084;32.908;2022-07-29T04:24:17;89465.19;;;23.55;42.30
72585;BME280;60618;40.084;32.908;2022-07-29T04:26:48;89454.09;;;23.61;42.03
72585;BME280;60618;40.084;32.908;2022-07-29T04:29:15;89471.59;;;23.75;42.38
72585;BME280;60618;40.084;32.908;2022-07-29T04:31:43;89470.28;;;23.84;41.75
72585;BME280;60618;40.084;32.908;2022-07-29T04:34:10;89467.81;;;23.95;41.38
72585;BME280;60618;40.084;32.908;2022-07-29T04:36:38;89465.19;;;24.05;41.02
72585;BME280;60618;40.084;32.908;2022-07-29T04:39:05;89465.44;;;24.17;41.14
72585;BME280;60618;40.084;32.908;2022-07-29T04:41:32;89458.91;;;24.20;41.12
72585;BME280;60618;40.084;32.908;2022-07-29T04:44:00;89461.00;;;24.29;40.63
72585;BME280;60618;40.084;32.908;2022-07-29T04:46:27;89460.41;;;24.38;40.50
72585;BME280;60618;40.084;32.908;2022-07-29T04:48:54;89460.16;;;24.44;40.54
72585;BME280;60618;40.084;32.908;2022-07-29T04:51:22;89455.69;;;24.56;40.26
72585;BME280;60618;40.084;32.908;2022-07-29T04:53:49;89456.91;;;24.62;40.01
72585;BME280;60618;40.084;32.908;2022-07-29T04:56:16;89463.13;;;24.73;39.58
72585;BME280;60618;40.084;32.908;2022-07-29T04:58:43;89468.31;;;24.78;39.02
72585;BME280;60618;40.084;32.908;2022-07-29T05:01:10;89462.31;;;24.80;39.07
72585;BME280;60618;40.084;32.908;2022-07-29T05:03:37;89463.78;;;24.81;39.11
72585;BME280;60618;40.084;32.908;2022-07-29T05:06:03;89468.97;;;24.86;39.33
72585;BME280;60618;40.084;32.908;2022-07-29T05:08:30;89462.16;;;24.95;39.62
72585;BME280;60618;40.084;32.908;2022-07-29T05:10:57;89462.63;;;25.01;39.81
72585;BME280;60618;40.084;32.908;2022-07-29T05:13:37;89468.31;;;25.13;39.60
72585;BME280;60618;40.084;32.908;2022-07-29T05:16:12;89473.03;;;25.30;38.99
72585;BME280;60618;40.084;32.908;2022-07-29T05:18:40;89468.63;;;25.34;39.26
72585;BME280;60618;40.084;32.908;2022-07-29T05:21:07;89465.38;;;25.45;38.68
72585;BME280;60618;40.084;32.908;2022-07-29T05:23:34;89469.72;;;25.58;38.53
72585;BME280;60618;40.084;32.908;2022-07-29T05:26:01;89451.97;;;25.67;38.29
72585;BME280;60618;40.084;32.908;2022-07-29T05:28:28;89462.53;;;25.80;37.50
72585;BME280;60618;40.084;32.908;2022-07-29T05:30:55;89469.00;;;25.85;37.34
72585;BME280;60618;40.084;32.908;2022-07-29T05:33:22;89466.88;;;25.93;36.60
72585;BME280;60618;40.084;32.908;2022-07-29T05:36:06;89470.66;;;25.97;36.80
72585;BME280;60618;40.084;32.908;2022-07-29T05:38:37;89476.97;;;26.00;36.65
72585;BME280;60618;40.084;32.908;2022-07-29T05:41:05;89480.16;;;26.06;36.66
72585;BME280;60618;40.084;32.908;2022-07-29T05:43:32;89476.16;;;26.07;36.15
72585;BME280;60618;40.084;32.908;2022-07-29T05:45:59;89474.03;;;26.15;36.57
72585;BME280;60618;40.084;32.908;2022-07-29T05:48:26;89474.91;;;26.27;36.78
72585;BME280;60618;40.084;32.908;2022-07-29T05:50:53;89477.41;;;26.43;36.38
72585;BME280;60618;40.084;32.908;2022-07-29T05:53:20;89468.53;;;26.52;35.99
72585;BME280;60618;40.084;32.908;2022-07-29T05:55:48;89471.84;;;26.60;35.98
72585;BME280;60618;40.084;32.908;2022-07-29T05:58:15;89466.53;;;26.72;35.55
72585;BME280;60618;40.084;32.908;2022-07-29T06:00:42;89460.34;;;26.71;35.14
72585;BME280;60618;40.084;32.908;2022-07-29T06:03:09;89463.78;;;26.81;35.38
72585;BME280;60618;40.084;32.908;2022-07-29T06:05:36;89462.50;;;26.92;35.38
72585;BME280;60618;40.084;32.908;2022-07-29T06:08:03;89463.06;;;27.00;35.42
72585;BME280;60618;40.084;32.908;2022-07-29T06:10:30;89467.84;;;27.09;34.41
72585;BME280;60618;40.084;32.908;2022-07-29T06:12:57;89464.53;;;27.11;34.69
72585;BME280;60618;40.084;32.908;2022-07-29T06:15:24;89465.53;;;27.25;34.63
72585;BME280;60618;40.084;32.908;2022-07-29T06:17:51;89462.03;;;27.44;34.21
72585;BME280;60618;40.084;32.908;2022-07-29T06:20:30;89458.69;;;27.55;33.48
72585;BME280;60618;40.084;32.908;2022-07-29T06:22:59;89463.88;;;27.61;32.85
72585;BME280;60618;40.084;32.908;2022-07-29T06:25:27;89463.28;;;27.62;32.84
72585;BME280;60618;40.084;32.908;2022-07-29T06:27:54;89468.03;;;27.71;32.48
72585;BME280;60618;40.084;32.908;2022-07-29T06:30:21;89472.31;;;27.84;32.85
72585;BME280;60618;40.084;32.908;2022-07-29T06:32:48;89462.00;;;27.73;32.59
72585;BME280;60618;40.084;32.908;2022-07-29T06:35:15;89456.81;;;27.77;32.61
72585;BME280;60618;40.084;32.908;2022-07-29T06:38:03;89464.53;;;27.90;33.11
72585;BME280;60618;40.084;32.908;2022-07-29T06:40:50;89457.00;;;28.00;32.43
72585;BME280;60618;40.084;32.908;2022-07-29T06:43:17;89467.91;;;28.10;32.76
72585;BME280;60618;40.084;32.908;2022-07-29T06:45:44;89453.78;;;28.14;32.63
72585;BME280;60618;40.084;32.908;2022-07-29T06:48:10;89461.34;;;28.25;32.90
72585;BME280;60618;40.084;32.908;2022-07-29T06:50:37;89463.06;;;28.30;32.37
72585;BME280;60618;40.084;32.908;2022-07-29T06:53:04;89460.03;;;28.36;31.93
72585;BME280;60618;40.084;32.908;2022-07-29T06:55:31;89466.88;;;28.46;32.60
72585;BME280;60618;40.084;32.908;2022-07-29T06:57:58;89461.81;;;28.52;32.71
72585;BME280;60618;40.084;32.908;2022-07-29T07:00:25;89463.63;;;28.60;32.09
72585;BME280;60618;40.084;32.908;2022-07-29T07:02:52;89464.34;;;28.60;31.85
72585;BME280;60618;40.084;32.908;2022-07-29T07:05:19;89458.41;;;28.64;32.28
72585;BME280;60618;40.084;32.908;2022-07-29T07:07:46;89466.75;;;28.66;31.36
72585;BME280;60618;40.084;32.908;2022-07-29T07:10:13;89456.31;;;28.74;32.23
72585;BME280;60618;40.084;32.908;2022-07-29T07:12:40;89461.94;;;28.76;31.26
72585;BME280;60618;40.084;32.908;2022-07-29T07:15:07;89468.72;;;28.75;31.93
72585;BME280;60618;40.084;32.908;2022-07-29T07:17:34;89466.38;;;28.81;31.46
72585;BME280;60618;40.084;32.908;2022-07-29T07:20:01;89463.44;;;28.89;31.68
72585;BME280;60618;40.084;32.908;2022-07-29T07:22:28;89460.69;;;28.89;31.93
72585;BME280;60618;40.084;32.908;2022-07-29T07:24:55;89458.41;;;29.06;31.67
72585;BME280;60618;40.084;32.908;2022-07-29T07:27:22;89457.09;;;29.07;30.85
72585;BME280;60618;40.084;32.908;2022-07-29T07:29:49;89454.97;;;29.06;30.53
72585;BME280;60618;40.084;32.908;2022-07-29T07:32:16;89453.41;;;29.03;30.91
72585;BME280;60618;40.084;32.908;2022-07-29T07:34:43;89442.69;;;29.07;31.07
72585;BME280;60618;40.084;32.908;2022-07-29T07:37:10;89454.59;;;29.11;29.82
72585;BME280;60618;40.084;32.908;2022-07-29T07:39:37;89457.50;;;29.14;30.14
72585;BME280;60618;40.084;32.908;2022-07-29T07:42:04;89458.25;;;29.26;30.07
72585;BME280;60618;40.084;32.908;2022-07-29T07:44:31;89450.63;;;29.24;30.53
72585;BME280;60618;40.084;32.908;2022-07-29T07:47:07;89451.56;;;29.29;29.63
72585;BME280;60618;40.084;32.908;2022-07-29T07:49:38;89449.47;;;29.39;29.87
72585;BME280;60618;40.084;32.908;2022-07-29T07:52:07;89450.69;;;29.48;30.23
72585;BME280;60618;40.084;32.908;2022-07-29T07:54:34;89449.00;;;29.43;28.70
72585;BME280;60618;40.084;32.908;2022-07-29T07:57:01;89454.50;;;29.43;28.99
72585;BME280;60618;40.084;32.908;2022-07-29T07:59:28;89444.91;;;29.32;28.83
72585;BME280;60618;40.084;32.908;2022-07-29T08:01:55;89452.03;;;29.25;28.91
72585;BME280;60618;40.084;32.908;2022-07-29T08:04:23;89452.56;;;29.33;29.67
72585;BME280;60618;40.084;32.908;2022-07-29T08:06:55;89453.78;;;29.42;29.39
72585;BME280;60618;40.084;32.908;2022-07-29T08:09:23;89452.50;;;29.55;28.18
72585;BME280;60618;40.084;32.908;2022-07-29T08:11:57;89450.47;;;29.55;28.88
72585;BME280;60618;40.084;32.908;2022-07-29T08:14:24;89433.31;;;29.55;29.38
72585;BME280;60618;40.084;32.908;2022-07-29T08:16:51;89450.25;;;29.63;28.40
72585;BME280;60618;40.084;32.908;2022-07-29T08:19:19;89444.06;;;29.74;29.35
72585;BME280;60618;40.084;32.908;2022-07-29T08:21:46;89442.69;;;29.85;27.90
72585;BME280;60618;40.084;32.908;2022-07-29T08:24:13;89432.16;;;29.81;27.89
72585;BME280;60618;40.084;32.908;2022-07-29T08:26:43;89443.75;;;30.03;28.54
72585;BME280;60618;40.084;32.908;2022-07-29T08:29:10;89441.72;;;30.04;27.77
72585;BME280;60618;40.084;32.908;2022-07-29T08:31:41;89441.72;;;29.92;26.51
72585;BME280;60618;40.084;32.908;2022-07-29T08:34:10;89433.59;;;29.94;28.14
72585;BME280;60618;40.084;32.908;2022-07-29T08:36:37;89438.63;;;29.98;27.74
72585;BME280;60618;40.084;32.908;2022-07-29T08:39:04;89444.59;;;30.06;28.40
72585;BME280;60618;40.084;32.908;2022-07-29T08:41:31;89443.66;;;30.13;28.12
72585;BME280;60618;40.084;32.908;2022-07-29T08:43:58;89439.47;;;30.23;27.98
72585;BME280;60618;40.084;32.908;2022-07-29T08:46:25;89439.25;;;30.31;26.10
72585;BME280;60618;40.084;32.908;2022-07-29T08:48:52;89430.88;;;30.29;26.59
72585;BME280;60618;40.084;32.908;2022-07-29T08:51:20;89435.75;;;30.42;27.58
72585;BME280;60618;40.084;32.908;2022-07-29T08:53:48;89424.41;;;30.36;26.88
72585;BME280;60618;40.084;32.908;2022-07-29T08:56:17;89425.59;;;30.45;27.34
72585;BME280;60618;40.084;32.908;2022-07-29T08:58:46;89430.50;;;30.46;26.38
72585;BME280;60618;40.084;32.908;2022-07-29T09:01:22;89428.59;;;30.49;26.46
72585;BME280;60618;40.084;32.908;2022-07-29T09:04:10;89426.91;;;30.67;26.29
72585;BME280;60618;40.084;32.908;2022-07-29T09:06:43;89429.88;;;30.83;25.92
72585;BME280;60618;40.084;32.908;2022-07-29T09:09:10;89427.22;;;30.85;25.97
72585;BME280;60618;40.084;32.908;2022-07-29T09:11:37;89422.09;;;30.79;26.21
72585;BME280;60618;40.084;32.908;2022-07-29T09:14:04;89418.38;;;30.87;25.90
72585;BME280;60618;40.084;32.908;2022-07-29T09:21:47;89416.84;;;30.84;24.53
72585;BME280;60618;40.084;32.908;2022-07-29T09:24:14;89421.38;;;30.79;24.76
72585;BME280;60618;40.084;32.908;2022-07-29T09:26:43;89407.72;;;30.81;25.31
72585;BME280;60618;40.084;32.908;2022-07-29T09:29:20;89408.44;;;30.82;25.06
72585;BME280;60618;40.084;32.908;2022-07-29T09:31:50;89403.28;;;30.88;25.33
72585;BME280;60618;40.084;32.908;2022-07-29T09:34:23;89406.28;;;30.92;25.38
72585;BME280;60618;40.084;32.908;2022-07-29T09:36:51;89405.78;;;30.95;23.25
72585;BME280;60618;40.084;32.908;2022-07-29T09:39:34;89406.41;;;30.82;22.74
72585;BME280;60618;40.084;32.908;2022-07-29T09:42:05;89405.38;;;30.75;24.09
72585;BME280;60618;40.084;32.908;2022-07-29T09:44:47;89399.97;;;30.77;24.61
72585;BME280;60618;40.084;32.908;2022-07-29T09:47:15;89410.16;;;30.75;22.67
72585;BME280;60618;40.084;32.908;2022-07-29T09:50:03;89405.63;;;30.68;21.97
72585;BME280;60618;40.084;32.908;2022-07-29T09:52:30;89402.59;;;30.64;21.94
72585;BME280;60618;40.084;32.908;2022-07-29T09:55:08;89398.81;;;30.69;22.93
72585;BME280;60618;40.084;32.908;2022-07-29T09:57:35;89401.19;;;30.74;21.95
72585;BME280;60618;40.084;32.908;2022-07-29T10:02:36;89396.56;;;30.91;22.80
72585;BME280;60618;40.084;32.908;2022-07-29T10:05:09;89394.06;;;30.95;21.41
72585;BME280;60618;40.084;32.908;2022-07-29T10:07:47;89392.38;;;31.01;21.48
72585;BME280;60618;40.084;32.908;2022-07-29T10:10:27;89406.94;;;31.04;21.43
72585;BME280;60618;40.084;32.908;2022-07-29T10:13:00;89401.44;;;31.04;20.63
72585;BME280;60618;40.084;32.908;2022-07-29T10:15:43;89396.16;;;31.08;21.85
72585;BME280;60618;40.084;32.908;2022-07-29T10:18:12;89399.25;;;31.14;21.77
72585;BME280;60618;40.084;32.908;2022-07-29T10:20:40;89399.16;;;31.12;20.13
72585;BME280;60618;40.084;32.908;2022-07-29T10:23:07;89404.31;;;31.06;20.48
72585;BME280;60618;40.084;32.908;2022-07-29T10:25:35;89401.22;;;31.00;20.32
72585;BME280;60618;40.084;32.908;2022-07-29T10:28:02;89404.81;;;31.02;20.53
72585;BME280;60618;40.084;32.908;2022-07-29T10:30:29;89391.16;;;31.04;20.54
72585;BME280;60618;40.084;32.908;2022-07-29T10:36:05;89392.31;;;31.13;20.80
72585;BME280;60618;40.084;32.908;2022-07-29T10:41:39;89391.81;;;31.28;19.56
72585;BME280;60618;40.084;32.908;2022-07-29T10:44:16;89391.56;;;31.24;19.62
72585;BME280;60618;40.084;32.908;2022-07-29T10:46:50;89377.69;;;31.22;20.11
72585;BME280;60618;40.084;32.908;2022-07-29T10:49:24;89385.06;;;31.31;20.69
72585;BME280;60618;40.084;32.908;2022-07-29T10:51:57;89380.81;;;31.42;20.30
72585;BME280;60618;40.084;32.908;2022-07-29T10:57:20;89383.69;;;31.44;19.29
72585;BME280;60618;40.084;32.908;2022-07-29T11:02:45;89375.38;;;31.70;20.30
72585;BME280;60618;40.084;32.908;2022-07-29T11:05:17;89373.56;;;31.74;19.33
72585;BME280;60618;40.084;32.908;2022-07-29T11:10:53;89368.69;;;31.73;18.49
72585;BME280;60618;40.084;32.908;2022-07-29T11:13:50;89365.78;;;31.71;18.43
72585;BME280;60618;40.084;32.908;2022-07-29T11:16:19;89352.97;;;31.75;18.45
72585;BME280;60618;40.084;32.908;2022-07-29T11:21:44;89356.16;;;31.97;16.93
72585;BME280;60618;40.084;32.908;2022-07-29T11:24:28;89354.84;;;31.84;17.18
72585;BME280;60618;40.084;32.908;2022-07-29T11:27:26;89357.41;;;31.94;18.12
72585;BME280;60618;40.084;32.908;2022-07-29T11:29:58;89344.75;;;32.03;18.30
72585;BME280;60618;40.084;32.908;2022-07-29T11:32:37;89335.25;;;32.06;18.10
72585;BME280;60618;40.084;32.908;2022-07-29T11:35:17;89334.75;;;32.09;17.47
72585;BME280;60618;40.084;32.908;2022-07-29T11:41:20;89333.53;;;32.12;17.47
72585;BME280;60618;40.084;32.908;2022-07-29T11:46:41;89317.28;;;32.05;17.20
72585;BME280;60618;40.084;32.908;2022-07-29T11:49:05;89319.13;;;32.00;17.06
72585;BME280;60618;40.084;32.908;2022-07-29T11:51:37;89322.59;;;32.01;16.93
72585;BME280;60618;40.084;32.908;2022-07-29T11:54:15;89318.31;;;31.98;16.41
72585;BME280;60618;40.084;32.908;2022-07-29T11:56:53;89313.41;;;31.96;17.02
72585;BME280;60618;40.084;32.908;2022-07-29T11:59:21;89312.09;;;31.97;15.96
72585;BME280;60618;40.084;32.908;2022-07-29T12:01:59;89310.66;;;31.96;16.17
72585;BME280;60618;40.084;32.908;2022-07-29T12:04:54;89305.66;;;31.92;15.83
72585;BME280;60618;40.084;32.908;2022-07-29T12:07:31;89302.59;;;31.86;16.23
72585;BME280;60618;40.084;32.908;2022-07-29T12:10:01;89300.78;;;31.91;15.95
72585;BME280;60618;40.084;32.908;2022-07-29T12:12:28;89294.22;;;31.98;17.08
72585;BME280;60618;40.084;32.908;2022-07-29T12:14:55;89303.59;;;32.07;16.60
72585;BME280;60618;40.084;32.908;2022-07-29T12:17:26;89295.13;;;32.16;16.60
72585;BME280;60618;40.084;32.908;2022-07-29T12:19:57;89298.41;;;32.27;15.87
72585;BME280;60618;40.084;32.908;2022-07-29T12:22:32;89297.66;;;32.26;16.16
72585;BME280;60618;40.084;32.908;2022-07-29T12:25:04;89289.81;;;32.34;16.72
72585;BME280;60618;40.084;32.908;2022-07-29T12:27:59;89289.19;;;32.50;16.40
72585;BME280;60618;40.084;32.908;2022-07-29T12:30:44;89301.94;;;32.57;16.32
72585;BME280;60618;40.084;32.908;2022-07-29T12:33:18;89282.00;;;32.58;16.55
72585;BME280;60618;40.084;32.908;2022-07-29T12:35:54;89288.09;;;32.70;16.87
72585;BME280;60618;40.084;32.908;2022-07-29T12:38:34;89288.63;;;32.67;16.84
72585;BME280;60618;40.084;32.908;2022-07-29T12:41:02;89288.22;;;32.59;16.02
72585;BME280;60618;40.084;32.908;2022-07-29T12:43:30;89283.97;;;32.56;15.17
72585;BME280;60618;40.084;32.908;2022-07-29T12:45:57;89280.91;;;32.50;15.34
72585;BME280;60618;40.084;32.908;2022-07-29T12:48:39;89276.44;;;32.42;15.45
72585;BME280;60618;40.084;32.908;2022-07-29T12:51:07;89275.53;;;32.38;15.52
72585;BME280;60618;40.084;32.908;2022-07-29T12:53:36;89273.41;;;32.36;16.25
72585;BME280;60618;40.084;32.908;2022-07-29T12:56:04;89262.63;;;32.42;16.59
72585;BME280;60618;40.084;32.908;2022-07-29T12:58:46;89265.50;;;32.44;16.29
72585;BME280;60618;40.084;32.908;2022-07-29T13:01:17;89264.44;;;32.52;16.38
72585;BME280;60618;40.084;32.908;2022-07-29T13:03:50;89256.38;;;32.56;16.26
72585;BME280;60618;40.084;32.908;2022-07-29T13:06:36;89259.31;;;32.60;16.30
72585;BME280;60618;40.084;32.908;2022-07-29T13:09:11;89249.91;;;32.65;16.31
72585;BME280;60618;40.084;32.908;2022-07-29T13:11:44;89253.56;;;32.69;16.83
72585;BME280;60618;40.084;32.908;2022-07-29T13:14:32;89249.91;;;32.65;15.33
72585;BME280;60618;40.084;32.908;2022-07-29T13:17:17;89253.91;;;32.62;15.87
72585;BME280;60618;40.084;32.908;2022-07-29T13:20:14;89254.81;;;32.66;16.14
72585;BME280;60618;40.084;32.908;2022-07-29T13:22:42;89241.66;;;32.65;16.04
72585;BME280;60618;40.084;32.908;2022-07-29T13:25:09;89242.03;;;32.73;16.12
72585;BME280;60618;40.084;32.908;2022-07-29T13:27:38;89239.78;;;32.69;15.53
72585;BME280;60618;40.084;32.908;2022-07-29T13:30:07;89239.59;;;32.65;16.04
72585;BME280;60618;40.084;32.908;2022-07-29T13:32:35;89235.41;;;32.64;16.27
72585;BME280;60618;40.084;32.908;2022-07-29T13:35:07;89239.78;;;32.69;16.71
72585;BME280;60618;40.084;32.908;2022-07-29T13:37:35;89238.03;;;32.76;16.54
72585;BME280;60618;40.084;32.908;2022-07-29T13:40:03;89243.34;;;32.72;16.04
72585;BME280;60618;40.084;32.908;2022-07-29T13:42:31;89245.81;;;32.66;16.16
72585;BME280;60618;40.084;32.908;2022-07-29T13:44:59;89240.03;;;32.60;16.30
72585;BME280;60618;40.084;32.908;2022-07-29T13:47:27;89238.81;;;32.63;17.10
72585;BME280;60618;40.084;32.908;2022-07-29T13:50:05;89232.56;;;32.62;17.42
72585;BME280;60618;40.084;32.908;2022-07-29T13:52:33;89232.66;;;32.64;17.05